Terminal Aerodrome Forecast
Issued by NWS

Home | Current Version | Previous Version | Text Only | Print | Product List | Glossary On
Versions: 1 2 3 4 5 6 7 8 9 10 11 12 13 14 15 16
747
FTUS46 KSGX 241738
TAFTRM
TAF
KTRM 241738Z 2418/2518 VRB05KT P6SM SCT120
     FM242300 32009KT P6SM SCT060 SCT150
     FM250900 VRB04KT P6SM SKC=

USA.gov is the U.S. government's official web portal to all federal, state and local government web resources and services.